SBOSBO MTH / KMTH
Speedbird OnlineSpeedbird Online MTH / KMTH

The Florida Keys Marathon Airport
06:59 29.2°C

Location Marathon, United States
Latitude: 24.726101
Longitude: -81.051399
Local Time 06:59 on 17 Jul 2024
UTC -4 hours (America/New_York)
Currency £1 equals USD 1.30
METAR KMTH 170953Z AUTO 10009KT 10SM FEW023 29/25 A3000 RMK AO2 SLP159 T02940250 $
TAF KMTH 170935Z 1710/1806 11008KT P6SM VCSH SCT025 FM171300 10008KT P6SM FEW025
Weather As Of 17 Jul 2024 06:59
Description Broken clouds
Wind 13 km/h from South-East (114°)
Cloud Cover 60%
Precipitation Rain: none, Snow: none
Sunrise 06:45
Sunset 20:15
Codes IATA: MTH
ICAO: KMTH
Altitude 2 Meter / 5 Feet
Distance 7,287 KM / 4,528 Miles
from London.



Support Speedbird Online

© 2017-2024 Speedbird Online